sensor_id;sensor_type;location;lat;lon;timestamp;P1;durP1;ratioP1;P2;durP2;ratioP2
9334;SDS011;4706;41.844;26.082;2023-04-29T00:01:29;3.78;;;3.47;;
9334;SDS011;4706;41.844;26.082;2023-04-29T00:03:55;5.07;;;4.00;;
9334;SDS011;4706;41.844;26.082;2023-04-29T00:06:20;5.25;;;4.07;;
9334;SDS011;4706;41.844;26.082;2023-04-29T00:08:46;4.55;;;4.05;;
9334;SDS011;4706;41.844;26.082;2023-04-29T00:11:12;5.55;;;3.92;;
9334;SDS011;4706;41.844;26.082;2023-04-29T00:13:37;3.90;;;3.60;;
9334;SDS011;4706;41.844;26.082;2023-04-29T00:16:06;4.07;;;3.60;;
9334;SDS011;4706;41.844;26.082;2023-04-29T00:18:32;3.63;;;3.33;;
9334;SDS011;4706;41.844;26.082;2023-04-29T00:20:58;5.93;;;4.63;;
9334;SDS011;4706;41.844;26.082;2023-04-29T00:23:23;6.10;;;4.40;;
9334;SDS011;4706;41.844;26.082;2023-04-29T00:25:49;4.72;;;4.00;;
9334;SDS011;4706;41.844;26.082;2023-04-29T00:28:17;5.47;;;4.30;;
9334;SDS011;4706;41.844;26.082;2023-04-29T00:30:42;4.70;;;3.83;;
9334;SDS011;4706;41.844;26.082;2023-04-29T00:33:08;4.85;;;4.07;;
9334;SDS011;4706;41.844;26.082;2023-04-29T00:35:33;4.97;;;4.00;;
9334;SDS011;4706;41.844;26.082;2023-04-29T00:37:59;5.30;;;4.32;;
9334;SDS011;4706;41.844;26.082;2023-04-29T00:40:24;5.88;;;4.07;;
9334;SDS011;4706;41.844;26.082;2023-04-29T00:42:52;6.93;;;4.30;;
9334;SDS011;4706;41.844;26.082;2023-04-29T00:45:17;5.25;;;4.20;;
9334;SDS011;4706;41.844;26.082;2023-04-29T00:47:43;6.90;;;4.50;;
9334;SDS011;4706;41.844;26.082;2023-04-29T00:50:08;5.40;;;4.00;;
9334;SDS011;4706;41.844;26.082;2023-04-29T00:52:34;6.18;;;3.67;;
9334;SDS011;4706;41.844;26.082;2023-04-29T00:55:03;4.60;;;3.90;;
9334;SDS011;4706;41.844;26.082;2023-04-29T00:57:31;4.25;;;3.55;;
9334;SDS011;4706;41.844;26.082;2023-04-29T00:59:58;4.22;;;3.80;;
9334;SDS011;4706;41.844;26.082;2023-04-29T01:02:24;3.83;;;3.30;;
9334;SDS011;4706;41.844;26.082;2023-04-29T01:04:51;6.30;;;3.33;;
9334;SDS011;4706;41.844;26.082;2023-04-29T01:07:30;4.10;;;3.70;;
9334;SDS011;4706;41.844;26.082;2023-04-29T01:10:02;4.47;;;4.03;;
9334;SDS011;4706;41.844;26.082;2023-04-29T01:15:22;4.28;;;3.83;;
9334;SDS011;4706;41.844;26.082;2023-04-29T01:18:03;4.35;;;3.95;;
9334;SDS011;4706;41.844;26.082;2023-04-29T01:20:31;6.20;;;4.07;;
9334;SDS011;4706;41.844;26.082;2023-04-29T01:22:57;4.80;;;4.03;;
9334;SDS011;4706;41.844;26.082;2023-04-29T01:25:23;8.48;;;4.05;;
9334;SDS011;4706;41.844;26.082;2023-04-29T01:27:56;6.82;;;3.88;;
9334;SDS011;4706;41.844;26.082;2023-04-29T01:33:22;5.38;;;3.97;;
9334;SDS011;4706;41.844;26.082;2023-04-29T01:44:01;6.38;;;4.10;;
9334;SDS011;4706;41.844;26.082;2023-04-29T01:46:28;7.40;;;6.10;;
9334;SDS011;4706;41.844;26.082;2023-04-29T01:48:55;10.40;;;8.93;;
9334;SDS011;4706;41.844;26.082;2023-04-29T01:51:20;8.98;;;7.72;;
9334;SDS011;4706;41.844;26.082;2023-04-29T01:53:46;6.40;;;5.80;;
9334;SDS011;4706;41.844;26.082;2023-04-29T01:56:11;6.55;;;5.95;;
9334;SDS011;4706;41.844;26.082;2023-04-29T01:58:37;7.70;;;6.38;;
9334;SDS011;4706;41.844;26.082;2023-04-29T02:01:02;6.93;;;5.90;;
9334;SDS011;4706;41.844;26.082;2023-04-29T02:03:28;6.95;;;5.40;;
9334;SDS011;4706;41.844;26.082;2023-04-29T02:05:53;7.68;;;4.20;;
9334;SDS011;4706;41.844;26.082;2023-04-29T02:08:19;5.22;;;3.72;;
9334;SDS011;4706;41.844;26.082;2023-04-29T02:10:54;4.85;;;3.65;;
9334;SDS011;4706;41.844;26.082;2023-04-29T02:13:20;6.82;;;4.10;;
9334;SDS011;4706;41.844;26.082;2023-04-29T02:15:46;9.82;;;4.78;;
9334;SDS011;4706;41.844;26.082;2023-04-29T02:18:11;7.68;;;5.05;;
9334;SDS011;4706;41.844;26.082;2023-04-29T02:20:37;9.45;;;5.10;;
9334;SDS011;4706;41.844;26.082;2023-04-29T02:23:03;11.43;;;6.18;;
9334;SDS011;4706;41.844;26.082;2023-04-29T02:25:29;9.68;;;5.40;;
9334;SDS011;4706;41.844;26.082;2023-04-29T02:27:54;12.98;;;5.50;;
9334;SDS011;4706;41.844;26.082;2023-04-29T02:30:20;13.23;;;6.32;;
9334;SDS011;4706;41.844;26.082;2023-04-29T02:32:46;11.10;;;6.35;;
9334;SDS011;4706;41.844;26.082;2023-04-29T02:35:11;8.80;;;6.88;;
9334;SDS011;4706;41.844;26.082;2023-04-29T02:37:37;10.93;;;6.15;;
9334;SDS011;4706;41.844;26.082;2023-04-29T02:40:03;8.88;;;6.32;;
9334;SDS011;4706;41.844;26.082;2023-04-29T02:42:30;10.55;;;6.22;;
9334;SDS011;4706;41.844;26.082;2023-04-29T02:44:55;10.73;;;6.50;;
9334;SDS011;4706;41.844;26.082;2023-04-29T02:47:21;11.93;;;6.68;;
9334;SDS011;4706;41.844;26.082;2023-04-29T02:49:47;14.18;;;7.15;;
9334;SDS011;4706;41.844;26.082;2023-04-29T02:52:13;10.23;;;6.72;;
9334;SDS011;4706;41.844;26.082;2023-04-29T02:54:38;11.02;;;7.22;;
9334;SDS011;4706;41.844;26.082;2023-04-29T02:57:04;13.48;;;7.78;;
9334;SDS011;4706;41.844;26.082;2023-04-29T02:59:29;10.98;;;6.70;;
9334;SDS011;4706;41.844;26.082;2023-04-29T03:01:55;7.13;;;6.43;;
9334;SDS011;4706;41.844;26.082;2023-04-29T03:04:21;6.93;;;6.20;;
9334;SDS011;4706;41.844;26.082;2023-04-29T03:06:47;8.07;;;5.80;;
9334;SDS011;4706;41.844;26.082;2023-04-29T03:09:13;7.22;;;5.95;;
9334;SDS011;4706;41.844;26.082;2023-04-29T03:11:38;5.78;;;5.28;;
9334;SDS011;4706;41.844;26.082;2023-04-29T03:14:04;6.65;;;5.05;;
9334;SDS011;4706;41.844;26.082;2023-04-29T03:16:29;6.60;;;6.00;;
9334;SDS011;4706;41.844;26.082;2023-04-29T03:18:55;6.68;;;5.85;;
9334;SDS011;4706;41.844;26.082;2023-04-29T03:21:22;6.30;;;5.72;;
9334;SDS011;4706;41.844;26.082;2023-04-29T03:23:49;6.93;;;5.80;;
9334;SDS011;4706;41.844;26.082;2023-04-29T03:26:15;8.52;;;6.93;;
9334;SDS011;4706;41.844;26.082;2023-04-29T03:28:41;7.63;;;6.70;;
9334;SDS011;4706;41.844;26.082;2023-04-29T03:31:06;9.38;;;6.72;;
9334;SDS011;4706;41.844;26.082;2023-04-29T03:33:32;9.20;;;6.90;;
9334;SDS011;4706;41.844;26.082;2023-04-29T03:35:58;8.75;;;6.90;;
9334;SDS011;4706;41.844;26.082;2023-04-29T03:38:23;11.50;;;8.05;;
9334;SDS011;4706;41.844;26.082;2023-04-29T03:40:50;9.30;;;7.28;;
9334;SDS011;4706;41.844;26.082;2023-04-29T03:43:16;9.30;;;7.00;;
9334;SDS011;4706;41.844;26.082;2023-04-29T03:45:43;6.95;;;6.35;;
9334;SDS011;4706;41.844;26.082;2023-04-29T03:48:09;9.82;;;6.45;;
9334;SDS011;4706;41.844;26.082;2023-04-29T03:50:35;8.82;;;7.03;;
9334;SDS011;4706;41.844;26.082;2023-04-29T03:53:01;9.30;;;8.00;;
9334;SDS011;4706;41.844;26.082;2023-04-29T03:55:26;8.93;;;7.90;;
9334;SDS011;4706;41.844;26.082;2023-04-29T03:57:52;13.70;;;9.25;;
9334;SDS011;4706;41.844;26.082;2023-04-29T04:00:17;14.38;;;8.18;;
9334;SDS011;4706;41.844;26.082;2023-04-29T04:02:43;9.07;;;7.45;;
9334;SDS011;4706;41.844;26.082;2023-04-29T04:05:09;10.70;;;7.97;;
9334;SDS011;4706;41.844;26.082;2023-04-29T04:07:34;8.65;;;7.75;;
9334;SDS011;4706;41.844;26.082;2023-04-29T04:10:00;9.43;;;7.15;;
9334;SDS011;4706;41.844;26.082;2023-04-29T04:12:26;11.27;;;7.57;;
9334;SDS011;4706;41.844;26.082;2023-04-29T04:14:51;10.02;;;7.78;;
9334;SDS011;4706;41.844;26.082;2023-04-29T04:17:17;10.93;;;7.88;;
9334;SDS011;4706;41.844;26.082;2023-04-29T04:19:42;9.00;;;7.70;;
9334;SDS011;4706;41.844;26.082;2023-04-29T04:22:08;10.57;;;7.43;;
9334;SDS011;4706;41.844;26.082;2023-04-29T04:24:33;9.68;;;8.43;;
9334;SDS011;4706;41.844;26.082;2023-04-29T04:26:59;14.18;;;8.68;;
9334;SDS011;4706;41.844;26.082;2023-04-29T04:29:25;10.70;;;8.75;;
9334;SDS011;4706;41.844;26.082;2023-04-29T04:31:50;9.93;;;8.20;;
9334;SDS011;4706;41.844;26.082;2023-04-29T04:34:16;9.95;;;7.22;;
9334;SDS011;4706;41.844;26.082;2023-04-29T04:36:41;7.97;;;7.00;;
9334;SDS011;4706;41.844;26.082;2023-04-29T04:39:07;11.10;;;7.75;;
9334;SDS011;4706;41.844;26.082;2023-04-29T04:41:32;10.93;;;6.93;;
9334;SDS011;4706;41.844;26.082;2023-04-29T04:43:58;8.48;;;7.68;;
9334;SDS011;4706;41.844;26.082;2023-04-29T04:46:23;9.80;;;8.23;;
9334;SDS011;4706;41.844;26.082;2023-04-29T04:48:49;10.38;;;9.05;;
9334;SDS011;4706;41.844;26.082;2023-04-29T04:51:15;13.60;;;8.00;;
9334;SDS011;4706;41.844;26.082;2023-04-29T04:53:40;8.63;;;7.65;;
9334;SDS011;4706;41.844;26.082;2023-04-29T04:56:06;7.28;;;6.68;;
9334;SDS011;4706;41.844;26.082;2023-04-29T04:58:32;7.85;;;6.18;;
9334;SDS011;4706;41.844;26.082;2023-04-29T05:00:58;9.63;;;6.85;;
9334;SDS011;4706;41.844;26.082;2023-04-29T05:03:24;6.90;;;6.20;;
9334;SDS011;4706;41.844;26.082;2023-04-29T05:05:56;6.97;;;6.38;;
9334;SDS011;4706;41.844;26.082;2023-04-29T05:08:23;7.15;;;6.28;;
9334;SDS011;4706;41.844;26.082;2023-04-29T05:10:49;9.23;;;7.18;;
9334;SDS011;4706;41.844;26.082;2023-04-29T05:13:14;7.72;;;6.97;;
9334;SDS011;4706;41.844;26.082;2023-04-29T05:15:40;7.00;;;6.38;;
9334;SDS011;4706;41.844;26.082;2023-04-29T05:18:06;7.15;;;6.43;;
9334;SDS011;4706;41.844;26.082;2023-04-29T05:20:31;12.02;;;10.38;;
9334;SDS011;4706;41.844;26.082;2023-04-29T05:22:57;7.75;;;6.40;;
9334;SDS011;4706;41.844;26.082;2023-04-29T05:25:22;6.88;;;6.28;;
9334;SDS011;4706;41.844;26.082;2023-04-29T05:27:48;6.88;;;5.80;;
9334;SDS011;4706;41.844;26.082;2023-04-29T05:30:13;7.30;;;5.90;;
9334;SDS011;4706;41.844;26.082;2023-04-29T05:32:39;8.35;;;7.45;;
9334;SDS011;4706;41.844;26.082;2023-04-29T05:35:05;8.38;;;6.40;;
9334;SDS011;4706;41.844;26.082;2023-04-29T05:37:31;6.93;;;6.20;;
9334;SDS011;4706;41.844;26.082;2023-04-29T05:39:56;6.57;;;5.90;;
9334;SDS011;4706;41.844;26.082;2023-04-29T05:42:22;8.80;;;6.75;;
9334;SDS011;4706;41.844;26.082;2023-04-29T05:44:48;6.18;;;5.60;;
9334;SDS011;4706;41.844;26.082;2023-04-29T05:47:14;7.97;;;5.97;;
9334;SDS011;4706;41.844;26.082;2023-04-29T05:49:40;9.20;;;6.88;;
9334;SDS011;4706;41.844;26.082;2023-04-29T05:52:05;7.40;;;6.40;;
9334;SDS011;4706;41.844;26.082;2023-04-29T05:54:31;11.68;;;7.90;;
9334;SDS011;4706;41.844;26.082;2023-04-29T05:56:58;11.38;;;6.55;;
9334;SDS011;4706;41.844;26.082;2023-04-29T05:59:26;7.32;;;5.63;;
9334;SDS011;4706;41.844;26.082;2023-04-29T06:01:58;7.75;;;5.38;;
9334;SDS011;4706;41.844;26.082;2023-04-29T06:04:24;10.77;;;6.13;;
9334;SDS011;4706;41.844;26.082;2023-04-29T06:06:54;7.80;;;6.00;;
9334;SDS011;4706;41.844;26.082;2023-04-29T06:09:21;6.78;;;6.18;;
9334;SDS011;4706;41.844;26.082;2023-04-29T06:11:49;10.20;;;6.13;;
9334;SDS011;4706;41.844;26.082;2023-04-29T06:14:15;7.05;;;6.10;;
9334;SDS011;4706;41.844;26.082;2023-04-29T06:16:41;6.70;;;6.00;;
9334;SDS011;4706;41.844;26.082;2023-04-29T06:19:06;8.38;;;6.35;;
9334;SDS011;4706;41.844;26.082;2023-04-29T06:21:32;6.53;;;5.95;;
9334;SDS011;4706;41.844;26.082;2023-04-29T06:23:58;7.15;;;6.45;;
9334;SDS011;4706;41.844;26.082;2023-04-29T06:26:23;7.07;;;6.38;;
9334;SDS011;4706;41.844;26.082;2023-04-29T06:28:49;10.55;;;7.10;;
9334;SDS011;4706;41.844;26.082;2023-04-29T06:31:14;8.10;;;6.30;;
9334;SDS011;4706;41.844;26.082;2023-04-29T06:33:40;13.65;;;6.55;;
9334;SDS011;4706;41.844;26.082;2023-04-29T06:36:06;6.97;;;5.72;;
9334;SDS011;4706;41.844;26.082;2023-04-29T06:38:31;6.90;;;5.47;;
9334;SDS011;4706;41.844;26.082;2023-04-29T06:40:57;6.25;;;5.32;;
9334;SDS011;4706;41.844;26.082;2023-04-29T06:43:28;7.15;;;5.25;;
9334;SDS011;4706;41.844;26.082;2023-04-29T06:45:54;5.40;;;4.85;;
9334;SDS011;4706;41.844;26.082;2023-04-29T06:48:19;6.75;;;5.40;;
9334;SDS011;4706;41.844;26.082;2023-04-29T06:50:55;6.32;;;5.55;;
9334;SDS011;4706;41.844;26.082;2023-04-29T06:53:21;6.80;;;5.22;;
9334;SDS011;4706;41.844;26.082;2023-04-29T06:55:47;10.15;;;5.95;;
9334;SDS011;4706;41.844;26.082;2023-04-29T06:58:13;9.02;;;6.30;;
9334;SDS011;4706;41.844;26.082;2023-04-29T07:00:42;7.28;;;6.05;;
9334;SDS011;4706;41.844;26.082;2023-04-29T07:03:09;6.78;;;6.13;;
9334;SDS011;4706;41.844;26.082;2023-04-29T07:05:35;8.88;;;6.40;;
9334;SDS011;4706;41.844;26.082;2023-04-29T07:08:03;8.05;;;6.30;;
9334;SDS011;4706;41.844;26.082;2023-04-29T07:10:30;8.40;;;6.57;;
9334;SDS011;4706;41.844;26.082;2023-04-29T07:12:55;7.43;;;6.63;;
9334;SDS011;4706;41.844;26.082;2023-04-29T07:15:21;9.30;;;6.45;;
9334;SDS011;4706;41.844;26.082;2023-04-29T07:17:46;6.70;;;6.10;;
9334;SDS011;4706;41.844;26.082;2023-04-29T07:20:12;9.43;;;6.60;;
9334;SDS011;4706;41.844;26.082;2023-04-29T07:22:37;9.63;;;6.35;;
9334;SDS011;4706;41.844;26.082;2023-04-29T07:25:03;10.25;;;6.35;;
9334;SDS011;4706;41.844;26.082;2023-04-29T07:27:29;7.47;;;5.88;;
9334;SDS011;4706;41.844;26.082;2023-04-29T07:29:54;5.88;;;5.30;;
9334;SDS011;4706;41.844;26.082;2023-04-29T07:32:20;6.75;;;5.18;;
9334;SDS011;4706;41.844;26.082;2023-04-29T07:34:46;6.63;;;6.00;;
9334;SDS011;4706;41.844;26.082;2023-04-29T07:37:12;5.18;;;4.60;;
9334;SDS011;4706;41.844;26.082;2023-04-29T07:39:37;7.03;;;5.20;;
9334;SDS011;4706;41.844;26.082;2023-04-29T07:42:03;6.90;;;5.03;;
9334;SDS011;4706;41.844;26.082;2023-04-29T07:44:29;7.38;;;5.10;;
9334;SDS011;4706;41.844;26.082;2023-04-29T07:46:54;5.03;;;4.10;;
9334;SDS011;4706;41.844;26.082;2023-04-29T07:49:20;6.50;;;4.10;;
9334;SDS011;4706;41.844;26.082;2023-04-29T07:51:45;4.50;;;3.45;;
9334;SDS011;4706;41.844;26.082;2023-04-29T07:54:11;4.35;;;3.15;;
9334;SDS011;4706;41.844;26.082;2023-04-29T07:56:36;5.63;;;3.15;;
9334;SDS011;4706;41.844;26.082;2023-04-29T07:59:02;5.38;;;4.20;;
9334;SDS011;4706;41.844;26.082;2023-04-29T08:01:27;4.72;;;3.20;;
9334;SDS011;4706;41.844;26.082;2023-04-29T08:03:53;4.25;;;2.75;;
9334;SDS011;4706;41.844;26.082;2023-04-29T08:06:19;5.18;;;3.17;;
9334;SDS011;4706;41.844;26.082;2023-04-29T08:08:49;6.45;;;3.05;;
9334;SDS011;4706;41.844;26.082;2023-04-29T08:11:15;7.60;;;3.60;;
9334;SDS011;4706;41.844;26.082;2023-04-29T08:13:45;4.88;;;2.95;;
9334;SDS011;4706;41.844;26.082;2023-04-29T08:16:11;5.10;;;3.03;;
9334;SDS011;4706;41.844;26.082;2023-04-29T08:18:37;2.60;;;2.40;;
9334;SDS011;4706;41.844;26.082;2023-04-29T08:21:03;4.18;;;2.67;;
9334;SDS011;4706;41.844;26.082;2023-04-29T08:23:29;3.13;;;2.80;;
9334;SDS011;4706;41.844;26.082;2023-04-29T08:25:54;2.70;;;2.38;;
9334;SDS011;4706;41.844;26.082;2023-04-29T08:28:20;3.80;;;3.08;;
9334;SDS011;4706;41.844;26.082;2023-04-29T08:30:47;3.75;;;2.92;;
9334;SDS011;4706;41.844;26.082;2023-04-29T08:33:12;3.05;;;2.60;;
9334;SDS011;4706;41.844;26.082;2023-04-29T08:35:38;12.38;;;8.45;;
9334;SDS011;4706;41.844;26.082;2023-04-29T08:38:04;2.53;;;2.33;;
9334;SDS011;4706;41.844;26.082;2023-04-29T08:40:32;3.30;;;2.58;;
9334;SDS011;4706;41.844;26.082;2023-04-29T08:43:06;2.85;;;2.30;;
9334;SDS011;4706;41.844;26.082;2023-04-29T08:45:34;4.63;;;3.35;;
9334;SDS011;4706;41.844;26.082;2023-04-29T08:48:01;6.35;;;2.45;;
9334;SDS011;4706;41.844;26.082;2023-04-29T08:50:27;4.20;;;2.33;;
9334;SDS011;4706;41.844;26.082;2023-04-29T08:52:54;3.67;;;2.67;;
9334;SDS011;4706;41.844;26.082;2023-04-29T08:55:20;9.55;;;2.88;;
9334;SDS011;4706;41.844;26.082;2023-04-29T08:57:46;4.20;;;2.42;;
9334;SDS011;4706;41.844;26.082;2023-04-29T09:00:14;3.58;;;2.63;;
9334;SDS011;4706;41.844;26.082;2023-04-29T09:02:46;2.88;;;2.58;;
9334;SDS011;4706;41.844;26.082;2023-04-29T09:05:15;3.30;;;2.33;;
9334;SDS011;4706;41.844;26.082;2023-04-29T09:07:40;2.53;;;2.05;;
9334;SDS011;4706;41.844;26.082;2023-04-29T09:10:06;2.67;;;2.35;;
9334;SDS011;4706;41.844;26.082;2023-04-29T09:12:32;6.50;;;2.40;;
9334;SDS011;4706;41.844;26.082;2023-04-29T09:14:58;4.38;;;2.35;;
9334;SDS011;4706;41.844;26.082;2023-04-29T09:22:46;7.05;;;2.70;;
9334;SDS011;4706;41.844;26.082;2023-04-29T09:25:13;5.97;;;2.90;;
9334;SDS011;4706;41.844;26.082;2023-04-29T09:27:39;2.58;;;1.92;;
9334;SDS011;4706;41.844;26.082;2023-04-29T09:30:05;2.42;;;1.90;;
9334;SDS011;4706;41.844;26.082;2023-04-29T09:32:31;3.28;;;2.70;;
9334;SDS011;4706;41.844;26.082;2023-04-29T09:34:56;4.60;;;2.40;;
9334;SDS011;4706;41.844;26.082;2023-04-29T09:37:23;3.78;;;2.35;;
9334;SDS011;4706;41.844;26.082;2023-04-29T09:39:50;2.53;;;2.10;;
9334;SDS011;4706;41.844;26.082;2023-04-29T09:42:15;4.18;;;2.38;;
9334;SDS011;4706;41.844;26.082;2023-04-29T09:44:41;4.63;;;2.40;;
9334;SDS011;4706;41.844;26.082;2023-04-29T09:47:09;5.32;;;2.60;;
9334;SDS011;4706;41.844;26.082;2023-04-29T09:49:36;3.90;;;2.25;;
9334;SDS011;4706;41.844;26.082;2023-04-29T09:54:35;2.95;;;1.80;;
9334;SDS011;4706;41.844;26.082;2023-04-29T09:57:02;4.72;;;3.38;;
9334;SDS011;4706;41.844;26.082;2023-04-29T09:59:31;3.08;;;2.70;;
9334;SDS011;4706;41.844;26.082;2023-04-29T10:02:01;2.72;;;2.20;;
9334;SDS011;4706;41.844;26.082;2023-04-29T10:04:34;2.35;;;2.15;;
9334;SDS011;4706;41.844;26.082;2023-04-29T10:07:04;2.83;;;2.20;;
9334;SDS011;4706;41.844;26.082;2023-04-29T10:09:31;3.97;;;2.17;;
9334;SDS011;4706;41.844;26.082;2023-04-29T10:11:57;3.50;;;2.38;;
9334;SDS011;4706;41.844;26.082;2023-04-29T10:14:26;2.95;;;2.35;;
9334;SDS011;4706;41.844;26.082;2023-04-29T10:17:04;2.80;;;2.35;;
9334;SDS011;4706;41.844;26.082;2023-04-29T10:19:38;2.75;;;2.30;;
9334;SDS011;4706;41.844;26.082;2023-04-29T10:22:11;4.93;;;2.58;;
9334;SDS011;4706;41.844;26.082;2023-04-29T10:24:48;3.20;;;1.98;;
9334;SDS011;4706;41.844;26.082;2023-04-29T10:27:14;2.75;;;1.70;;
9334;SDS011;4706;41.844;26.082;2023-04-29T10:29:42;3.10;;;2.28;;
9334;SDS011;4706;41.844;26.082;2023-04-29T10:32:08;3.65;;;2.70;;
9334;SDS011;4706;41.844;26.082;2023-04-29T10:34:37;5.00;;;2.30;;
9334;SDS011;4706;41.844;26.082;2023-04-29T10:37:09;3.30;;;2.80;;
9334;SDS011;4706;41.844;26.082;2023-04-29T10:39:38;3.20;;;2.38;;
9334;SDS011;4706;41.844;26.082;2023-04-29T10:42:44;3.53;;;2.20;;
9334;SDS011;4706;41.844;26.082;2023-04-29T10:51:13;4.32;;;2.40;;
9334;SDS011;4706;41.844;26.082;2023-04-29T10:53:19;3.20;;;2.50;;
9334;SDS011;4706;41.844;26.082;2023-04-29T10:55:51;2.65;;;2.20;;
9334;SDS011;4706;41.844;26.082;2023-04-29T11:01:03;3.03;;;2.38;;
9334;SDS011;4706;41.844;26.082;2023-04-29T11:06:37;2.72;;;2.47;;
9334;SDS011;4706;41.844;26.082;2023-04-29T11:09:08;2.80;;;2.30;;
9334;SDS011;4706;41.844;26.082;2023-04-29T11:14:28;2.55;;;2.30;;
9334;SDS011;4706;41.844;26.082;2023-04-29T11:16:58;2.80;;;2.10;;
9334;SDS011;4706;41.844;26.082;2023-04-29T11:19:30;7.75;;;2.80;;
9334;SDS011;4706;41.844;26.082;2023-04-29T11:22:07;2.25;;;2.05;;
9334;SDS011;4706;41.844;26.082;2023-04-29T11:24:56;2.65;;;2.20;;
9334;SDS011;4706;41.844;26.082;2023-04-29T11:27:28;3.03;;;2.17;;
9334;SDS011;4706;41.844;26.082;2023-04-29T11:30:02;2.50;;;2.00;;
9334;SDS011;4706;41.844;26.082;2023-04-29T11:32:31;4.10;;;2.45;;
9334;SDS011;4706;41.844;26.082;2023-04-29T11:35:14;3.55;;;2.13;;
9334;SDS011;4706;41.844;26.082;2023-04-29T11:37:42;2.95;;;2.33;;
9334;SDS011;4706;41.844;26.082;2023-04-29T11:40:09;2.60;;;2.20;;
9334;SDS011;4706;41.844;26.082;2023-04-29T11:42:46;4.00;;;2.22;;
9334;SDS011;4706;41.844;26.082;2023-04-29T11:45:13;3.75;;;2.30;;
9334;SDS011;4706;41.844;26.082;2023-04-29T11:47:41;3.22;;;2.13;;
9334;SDS011;4706;41.844;26.082;2023-04-29T11:50:11;4.22;;;2.13;;
9334;SDS011;4706;41.844;26.082;2023-04-29T11:52:40;2.22;;;1.90;;
9334;SDS011;4706;41.844;26.082;2023-04-29T11:55:09;3.15;;;2.10;;
9334;SDS011;4706;41.844;26.082;2023-04-29T11:57:36;2.25;;;2.05;;
9334;SDS011;4706;41.844;26.082;2023-04-29T12:00:01;3.10;;;2.25;;
9334;SDS011;4706;41.844;26.082;2023-04-29T12:02:32;3.00;;;2.10;;
9334;SDS011;4706;41.844;26.082;2023-04-29T12:04:58;3.00;;;2.08;;
9334;SDS011;4706;41.844;26.082;2023-04-29T12:07:25;4.68;;;2.80;;
9334;SDS011;4706;41.844;26.082;2023-04-29T12:09:51;4.22;;;2.05;;
9334;SDS011;4706;41.844;26.082;2023-04-29T12:12:17;5.25;;;2.03;;
9334;SDS011;4706;41.844;26.082;2023-04-29T12:14:43;3.60;;;2.58;;
9334;SDS011;4706;41.844;26.082;2023-04-29T12:17:09;2.60;;;2.40;;
9334;SDS011;4706;41.844;26.082;2023-04-29T12:19:35;4.15;;;2.05;;
9334;SDS011;4706;41.844;26.082;2023-04-29T12:22:04;3.15;;;2.47;;
9334;SDS011;4706;41.844;26.082;2023-04-29T12:24:37;8.48;;;3.60;;
9334;SDS011;4706;41.844;26.082;2023-04-29T12:27:06;2.20;;;2.00;;
9334;SDS011;4706;41.844;26.082;2023-04-29T12:29:34;2.30;;;2.03;;
9334;SDS011;4706;41.844;26.082;2023-04-29T12:32:01;2.80;;;2.08;;
9334;SDS011;4706;41.844;26.082;2023-04-29T12:34:27;2.65;;;2.05;;
9334;SDS011;4706;41.844;26.082;2023-04-29T12:36:59;2.45;;;2.25;;
9334;SDS011;4706;41.844;26.082;2023-04-29T12:39:26;4.38;;;3.42;;
9334;SDS011;4706;41.844;26.082;2023-04-29T12:41:59;4.70;;;2.35;;
9334;SDS011;4706;41.844;26.082;2023-04-29T12:44:34;3.70;;;2.30;;
9334;SDS011;4706;41.844;26.082;2023-04-29T12:47:08;3.03;;;2.05;;
9334;SDS011;4706;41.844;26.082;2023-04-29T12:49:37;2.58;;;2.00;;
9334;SDS011;4706;41.844;26.082;2023-04-29T12:52:07;4.00;;;2.42;;
9334;SDS011;4706;41.844;26.082;2023-04-29T12:54:38;2.40;;;2.20;;
9334;SDS011;4706;41.844;26.082;2023-04-29T12:57:10;2.80;;;2.15;;
9334;SDS011;4706;41.844;26.082;2023-04-29T12:59:37;3.25;;;2.20;;
9334;SDS011;4706;41.844;26.082;2023-04-29T13:02:02;3.55;;;2.67;;
9334;SDS011;4706;41.844;26.082;2023-04-29T13:04:28;3.22;;;2.30;;
9334;SDS011;4706;41.844;26.082;2023-04-29T13:06:54;2.83;;;2.30;;
9334;SDS011;4706;41.844;26.082;2023-04-29T13:09:25;3.75;;;2.30;;
9334;SDS011;4706;41.844;26.082;2023-04-29T13:11:51;3.15;;;2.20;;
9334;SDS011;4706;41.844;26.082;2023-04-29T13:14:16;2.90;;;2.58;;
9334;SDS011;4706;41.844;26.082;2023-04-29T13:16:43;4.30;;;2.00;;
9334;SDS011;4706;41.844;26.082;2023-04-29T13:19:09;5.22;;;2.90;;
9334;SDS011;4706;41.844;26.082;2023-04-29T13:21:35;6.25;;;3.40;;
9334;SDS011;4706;41.844;26.082;2023-04-29T13:24:00;3.03;;;2.72;;
9334;SDS011;4706;41.844;26.082;2023-04-29T13:26:26;3.40;;;2.40;;
9334;SDS011;4706;41.844;26.082;2023-04-29T13:28:52;2.35;;;2.10;;
9334;SDS011;4706;41.844;26.082;2023-04-29T13:31:17;3.38;;;2.30;;
9334;SDS011;4706;41.844;26.082;2023-04-29T13:33:43;2.67;;;2.25;;
9334;SDS011;4706;41.844;26.082;2023-04-29T13:36:08;3.38;;;2.53;;
9334;SDS011;4706;41.844;26.082;2023-04-29T13:38:34;5.40;;;2.47;;
9334;SDS011;4706;41.844;26.082;2023-04-29T13:41:00;2.72;;;2.53;;
9334;SDS011;4706;41.844;26.082;2023-04-29T13:43:25;2.58;;;2.38;;
9334;SDS011;4706;41.844;26.082;2023-04-29T13:45:51;4.05;;;2.60;;
9334;SDS011;4706;41.844;26.082;2023-04-29T13:48:16;3.35;;;2.42;;
9334;SDS011;4706;41.844;26.082;2023-04-29T13:50:43;4.18;;;2.63;;
9334;SDS011;4706;41.844;26.082;2023-04-29T13:53:09;5.65;;;2.97;;
9334;SDS011;4706;41.844;26.082;2023-04-29T13:55:35;3.75;;;2.25;;
9334;SDS011;4706;41.844;26.082;2023-04-29T13:58:01;2.97;;;2.60;;
9334;SDS011;4706;41.844;26.082;2023-04-29T14:00:26;5.38;;;2.58;;
9334;SDS011;4706;41.844;26.082;2023-04-29T14:02:52;2.63;;;2.42;;
9334;SDS011;4706;41.844;26.082;2023-04-29T14:05:17;3.33;;;2.40;;
9334;SDS011;4706;41.844;26.082;2023-04-29T14:07:43;3.28;;;2.40;;
9334;SDS011;4706;41.844;26.082;2023-04-29T14:10:09;3.75;;;2.90;;
9334;SDS011;4706;41.844;26.082;2023-04-29T14:12:34;5.22;;;2.35;;
9334;SDS011;4706;41.844;26.082;2023-04-29T14:15:00;2.58;;;2.38;;
9334;SDS011;4706;41.844;26.082;2023-04-29T14:17:25;4.63;;;2.45;;
9334;SDS011;4706;41.844;26.082;2023-04-29T14:19:51;7.70;;;3.30;;
9334;SDS011;4706;41.844;26.082;2023-04-29T14:22:17;7.93;;;2.97;;
9334;SDS011;4706;41.844;26.082;2023-04-29T14:24:42;3.00;;;2.63;;
9334;SDS011;4706;41.844;26.082;2023-04-29T14:27:08;2.45;;;2.25;;
9334;SDS011;4706;41.844;26.082;2023-04-29T14:29:33;2.83;;;2.50;;
9334;SDS011;4706;41.844;26.082;2023-04-29T14:31:59;4.93;;;2.75;;
9334;SDS011;4706;41.844;26.082;2023-04-29T14:34:24;3.13;;;2.72;;
9334;SDS011;4706;41.844;26.082;2023-04-29T14:36:50;5.45;;;3.50;;
9334;SDS011;4706;41.844;26.082;2023-04-29T14:39:16;4.22;;;3.20;;
9334;SDS011;4706;41.844;26.082;2023-04-29T14:41:41;7.22;;;2.80;;
9334;SDS011;4706;41.844;26.082;2023-04-29T14:44:07;3.45;;;2.70;;
9334;SDS011;4706;41.844;26.082;2023-04-29T14:46:32;2.85;;;2.50;;
9334;SDS011;4706;41.844;26.082;2023-04-29T14:48:58;4.40;;;2.83;;
9334;SDS011;4706;41.844;26.082;2023-04-29T14:51:24;4.05;;;2.47;;
9334;SDS011;4706;41.844;26.082;2023-04-29T14:53:49;6.13;;;2.88;;
9334;SDS011;4706;41.844;26.082;2023-04-29T14:56:16;4.32;;;2.72;;
9334;SDS011;4706;41.844;26.082;2023-04-29T14:58:42;5.55;;;2.50;;
9334;SDS011;4706;41.844;26.082;2023-04-29T15:01:08;7.13;;;3.00;;
9334;SDS011;4706;41.844;26.082;2023-04-29T15:03:33;4.88;;;2.90;;
9334;SDS011;4706;41.844;26.082;2023-04-29T15:06:02;3.22;;;2.92;;
9334;SDS011;4706;41.844;26.082;2023-04-29T15:08:28;4.63;;;3.03;;
9334;SDS011;4706;41.844;26.082;2023-04-29T15:10:54;4.35;;;3.13;;
9334;SDS011;4706;41.844;26.082;2023-04-29T15:13:20;4.60;;;3.08;;
9334;SDS011;4706;41.844;26.082;2023-04-29T15:15:46;3.30;;;2.70;;
9334;SDS011;4706;41.844;26.082;2023-04-29T15:18:13;4.25;;;3.33;;
9334;SDS011;4706;41.844;26.082;2023-04-29T15:20:38;3.33;;;3.03;;
9334;SDS011;4706;41.844;26.082;2023-04-29T15:23:04;7.38;;;3.92;;
9334;SDS011;4706;41.844;26.082;2023-04-29T15:25:30;5.13;;;3.20;;
9334;SDS011;4706;41.844;26.082;2023-04-29T15:28:00;4.78;;;3.35;;
9334;SDS011;4706;41.844;26.082;2023-04-29T15:30:29;4.93;;;3.40;;
9334;SDS011;4706;41.844;26.082;2023-04-29T15:32:55;4.60;;;3.35;;
9334;SDS011;4706;41.844;26.082;2023-04-29T15:35:21;3.90;;;2.85;;